Washington, District of Columbia
Current Conditions -  °F | °C
As of 12:52 PM on Sunday 21 Dec 2014 (Local Time) from KDCA Reporting Station
Broken Clouds Broken Clouds  
Wind Chill: 41°   Ceiling: 7000
Heat Index: 44°   Visibility: 10mi
Dew Point: 24°   Wind: 6mph
Humidity: 45%   Direction: 30°NNE
Pressure: 30.33"   Gusts: NA
Location:  38.89°N, 77.03°W
Report Text: KDCA 211752Z 03005KT 10SM BKN070 07/M04 A3033 RMK AO2 SLP271 T00671044 10067 20028 58015
Loading
Personal Weather Stations






























Interactive Weather Map New forecast layout! Learn more

10-Day Weather Forecast

Advertisements
Track Severe Weather on mobile